x

Neah Bay, - 6nm North Of Cape Flattery, Wa (traffic Separation Lighted Buoy) (46087) Wave Buoy

11:50 - Fri 9th Dec 2016 All times are PST. -8 hours from GMT.

  • Sig Wave height 12.5ft
  • Swell Direction
  • Peak Period 11s
  • Average Period 9s
  • Wind
    11mph, 16mph gusts
  • Sea Temp 49°f
  • Aire Temp 46°f
  • Sea Pressure 1007.5mb
  • Neah Bay, - 6nm North Of Cape Flattery, Wa     (traffic Separation Lighted Buoy)
  • Neah Bay, - 6nm North Of Cape Flattery, Wa     (traffic Separation Lighted Buoy)

More Historic Weather Station data

Upgrade to MSW Pro to gain access to the past 30 days of data for over 8000 Wavebouys and Weather Stations around the globe.

Join Pro

Comparision Forecast

View Surf forecast
   
vie 12/09 11:50 12.5ft 11s 9s 11 16 mph 1007.5mb 49f 46f
11:20 13ft 11s 9s 13 18 mph 1007.4mb 49f 46f
10:50 12ft 11s 9s 9 13 mph 1007.2mb 49f 44f
10:20 14ft 11s 9s 9 13 mph 1007.2mb 49f 44f
9:50 13.5ft 12s 9s 11 16 mph 1006.9mb 49f 44f
9:20 13ft 12s 9s 13 16 mph 1006.9mb 49f 43f
8:50 12ft 11s 9s 18 22 mph 1006.6mb 49f 42f
8:20 12ft 11s 9s 18 25 mph 1006.6mb 49f 41f
7:50 10.5ft 10s 9s 20 25 mph 1007mb 49f 42f
7:20 11.5ft 11s 9s 22 29 mph 1007.5mb 49f 41f
6:50 10.5ft 10s 8s 22 29 mph 1007.4mb 49f 41f
6:20 9ft 10s 8s 25 31 mph 1007.4mb 49f 41f
5:50 11ft 11s 9s 22 29 mph 1008.1mb 49f 42f
5:20 9ft 11s 8s 22 27 mph 1007.9mb 50f 42f
4:50 9.5ft 11s 8s 25 29 mph 1008.1mb 49f 43f
4:20 10ft 11s 8s 25 29 mph 1008.4mb 50f 42f
3:50 9.5ft 11s 8s 22 29 mph 1008.9mb 50f 42f
3:20 11ft 11s  -  25 31 mph 1009.5mb 50f 43f
2:50 11ft 11s 9s 25 29 mph 1010mb 50f 42f
2:20 11ft 11s 9s 22 27 mph 1010.2mb 49f 42f
1:50 10.5ft 11s 8s 20 27 mph 1010.6mb 49f 41f
1:20 10ft 11s 8s 20 27 mph 1010.8mb 49f 41f
12:50 8ft 11s 7s 20 27 mph 1011.2mb 49f 40f
12:20 8.5ft 11s 7s 18 25 mph 1011.7mb 49f 40f
11:50 7ft 11s 7s 18 25 mph 1012.1mb 49f 39f
11:20 5ft 12s 6s 20 25 mph 1012mb 49f 39f
10:50 4.5ft 12s 5s 20 27 mph 1012.1mb 49f 40f
10:20 4.5ft 14s 5s 22 27 mph 1012.1mb 49f 38f
9:50 4ft 5s 5s 22 27 mph 1012mb 49f 39f
9:20 3.5ft 5s 5s 25 29 mph 1011.8mb 49f 38f
8:50 3.5ft 5s 5s 20 27 mph 1012.1mb 49f 38f
8:20 3.5ft 5s 5s 25 29 mph 1011.5mb 49f 38f
7:50 4ft 5s 5s 25 34 mph 1011.9mb 49f 37f
7:20 4.5ft 5s 5s 25 31 mph 1011.8mb 49f 37f
6:50 4ft 5s 5s 25 31 mph 1011.8mb 49f 36f
6:20 4.5ft 5s 5s 27 31 mph 1011.7mb 49f 36f
5:50 4.5ft 5s 5s 27 34 mph 1011.7mb 49f 36f
5:20 4.5ft 5s 4s 27 31 mph 1011.7mb 49f 35f
4:50 5ft 5s 5s 27 31 mph 1011.9mb 49f 36f
4:20 5ft 5s 5s 27 34 mph 1011.9mb 49f 36f
3:50 5ft 5s 5s 29 34 mph 1011.4mb 49f 36f
3:20 4.5ft 5s 4s 29 36 mph 1011.6mb 49f 36f
2:50 4.5ft 5s 4s 29 36 mph 1011.6mb 50f 36f
2:20 4.5ft 5s 4s 29 36 mph 1011.9mb 50f 35f
1:50 4.5ft 6s 4s 29 36 mph 1011.9mb 50f 35f
1:20 4.5ft 5s 4s 29 34 mph 1011.9mb 50f 35f
12:50 4ft 5s 4s 29 34 mph 1011.9mb 50f 34f
12:20 4.5ft 5s 4s 31 38 mph 1011.4mb 50f 35f
jue 12/08 11:50 4.5ft 6s 4s 34 40 mph 1011.5mb 49f 34f
11:20 5ft 5s 5s 31 38 mph 1011.5mb 49f 34f
10:50 5.5ft 6s 5s 34 38 mph 1011.3mb 49f 35f
10:20 5ft 5s 5s 38 45 mph 1011mb 49f 37f
9:50 4.5ft 5s 4s 34 40 mph 1010.9mb 49f 38f
9:20 5ft 5s 5s 34 43 mph 1010.3mb 49f 39f
8:50 4.5ft 5s 4s 31 38 mph 1010.2mb 49f 38f
8:20 4.5ft 5s 4s 31 36 mph 1009.9mb 49f 38f
7:50 4.5ft 5s 4s 34 40 mph 1010mb 50f 38f
7:20 4.5ft 5s 4s 36 43 mph 1010.2mb 49f 38f
6:50 5ft 5s 4s 34 40 mph 1010.4mb 50f 39f
6:20 5ft 5s 4s 34 40 mph 1010.5mb 50f 38f
5:50 4.5ft 5s 4s 34 43 mph 1010.6mb 49f 38f
5:20 4.5ft 5s 4s 34 40 mph 1010.3mb 49f 38f
4:50 5ft 5s 4s 34 40 mph 1010.8mb 49f 38f
4:20 4.5ft 5s 4s 34 40 mph 1011.6mb 49f 38f
3:50 5ft 5s 4s 34 40 mph 1011.9mb 49f 38f
3:20 5ft 6s 4s 34 40 mph 1011.8mb 50f 38f
2:50 5ft 6s 4s 34 40 mph 1011.8mb 50f 38f
2:20 5ft 5s 4s 34 40 mph 1012mb 50f 38f
1:50 5.5ft 6s 5s 34 40 mph 1012.7mb 50f 37f
1:20 5ft 5s 5s 34 40 mph 1013mb 50f 38f
12:50 5ft 5s 4s 36 43 mph 1013.6mb 50f 38f
12:20 5ft 6s 4s 34 43 mph 1013.8mb 49f 38f
11:50 5.5ft 6s 5s 36 43 mph 1014.1mb 49f 38f
11:20 5.5ft 6s 5s 36 40 mph 1014.7mb 49f 37f
10:50 5.5ft 5s 5s 36 40 mph 1015.2mb 49f 36f
10:20 5.5ft 6s 5s 34 40 mph 1015.7mb 49f 36f
9:50 5.5ft 6s 5s 36 40 mph 1015.7mb 49f 36f
9:20 5ft 6s 5s 38 45 mph 1015.5mb 49f 36f
8:50 5.5ft 6s 5s 36 45 mph 1015.8mb 49f 35f
8:20 5ft 6s 5s 40 47 mph 1015.7mb 49f 35f
7:50 5ft 6s 5s 38 45 mph 1016.2mb 49f 36f
7:20 5.5ft 5s 5s 36 43 mph 1016.7mb 49f 36f
6:50 5.5ft 6s 5s 36 45 mph 1017mb 49f 35f
6:20 5.5ft 6s 5s 36 43 mph 1017.3mb 50f 36f
5:50 6ft 6s 5s 36 45 mph 1017.4mb 50f 36f
5:20 5.5ft 5s 5s 36 43 mph 1017.8mb 50f 35f
4:50 5.5ft 5s 5s 34 40 mph 1018.5mb 50f 36f
4:20 5.5ft 5s 5s 36 40 mph 1019.1mb 50f 35f
3:50 6ft 5s 4s 36 43 mph 1019.2mb 50f 36f
3:20 6ft 5s 5s 38 45 mph 1019.6mb 50f 36f
2:50 5.5ft 6s 5s 36 40 mph 1020.2mb 50f 36f
2:20 5ft 5s 4s 36 43 mph 1020.6mb 50f 36f
1:50 5ft 6s 4s 38 45 mph 1020.9mb 50f 36f
1:20 5ft 6s 5s 36 43 mph 1021.4mb 50f 36f
12:50 6ft 5s 5s 36 45 mph 1021.8mb 50f 36f
12:20 5ft 5s 4s 36 43 mph 1022.2mb 50f 36f
mié 12/07 11:50 5ft 14s 5s 36 43 mph 1022.5mb 50f 35f
11:20 5ft 4s 4s 34 43 mph 1022.7mb 50f 36f
9:50 4.5ft 5s 4s 34 40 mph 1023.6mb 50f 36f
8:50 4.5ft 5s 4s 31 40 mph 1024.5mb 50f 36f
8:20 4.5ft 5s 4s 31 36 mph 1025mb 50f 36f
7:50 4.5ft 4s 4s 31 36 mph 1025.3mb 50f 35f
7:20 4ft 5s 4s 31 36 mph 1025.8mb 50f 35f
6:50 4ft 5s 4s 29 36 mph 1025.9mb 50f 36f
6:20 4ft 14s 4s 31 36 mph 1026.2mb 50f 36f
5:50 4ft 14s 4s 29 36 mph 1026.8mb 50f 36f
5:20 4ft 4s 4s 29 36 mph 1027mb 50f 36f
4:50 4.5ft 4s 4s 29 36 mph 1027.2mb 50f 36f
4:20 4ft 5s 4s 29 36 mph 1027.4mb 50f 36f
3:50 4.5ft 4s 4s 29 36 mph 1027.6mb 50f 36f
3:20 4ft 4s 4s 29 34 mph 1027.8mb 50f 37f
2:50 4ft 4s 4s 27 31 mph 1028.2mb 50f 37f
2:20 3.5ft 10s 4s 27 31 mph 1028.4mb 50f 36f
1:50 3.5ft 4s 4s 27 31 mph 1028.6mb 50f 36f
1:20 4ft 10s 4s 25 31 mph 1029.1mb 50f 36f
12:50 3.5ft 10s 4s 25 29 mph 1029.5mb 50f 36f
12:20 3.5ft 10s 4s 25 29 mph 1029.8mb 50f 35f
11:50 3.5ft 10s 5s 22 27 mph 1030.2mb 50f 34f
11:20 3.5ft 10s 4s 25 27 mph 1030.4mb 50f 34f
10:50 3.5ft 10s 4s 25 29 mph 1030.7mb 50f 34f
10:20 3.5ft 10s 5s 22 29 mph 1030.5mb 50f 34f
9:50 3.5ft 4s 5s 22 27 mph 1030.2mb 50f 34f
9:20 3.5ft 10s 5s 25 29 mph 1030.1mb 50f 34f
8:50 3.5ft 9s 5s 25 29 mph 1030.2mb 50f 34f
8:20 3.5ft 10s 5s 22 27 mph 1030.1mb 50f 34f
7:50 3.5ft 10s 5s 25 29 mph 1029.9mb 50f 34f
7:20 3.5ft 11s 5s 25 29 mph 1029.8mb 50f 35f
6:50 4ft 11s 5s 27 29 mph 1029.6mb 50f 34f
6:20 4ft 11s 5s 27 31 mph 1029.6mb 50f 35f
5:50 4ft 11s 5s 27 29 mph 1029.6mb 50f 35f
5:20 4ft 9s 5s 25 29 mph 1029.6mb 50f 35f
4:50 4.5ft 11s 5s 25 29 mph 1029.8mb 50f 36f
4:20 4.5ft 9s 5s 27 31 mph 1029.5mb 50f 36f
3:50 4.5ft 9s 5s 25 29 mph 1029.3mb 50f 36f
3:20 4.5ft 10s  -  25 29 mph 1029.5mb 50f 36f
2:50 4.5ft 10s 5s 25 31 mph 1029.4mb 50f 36f
2:20 4.5ft 11s 6s 20 25 mph 1029.3mb 50f 37f
1:50 4.5ft 11s 5s 25 27 mph 1029.1mb 50f 37f
1:20 5ft 9s 6s 22 27 mph 1029.1mb 50f 37f
12:50 5ft 11s 6s 25 29 mph 1028.7mb 50f 37f
12:20 5ft 10s 6s 25 29 mph 1028.4mb 50f 37f
mar 12/06 11:50 5ft 10s 6s 22 27 mph 1028.1mb 50f 38f
11:20 5ft 9s 6s 22 27 mph 1027.8mb 50f 38f
10:50 5ft 11s 6s 20 25 mph 1027.6mb 50f 39f
10:20 5.5ft 11s 6s 20 25 mph 1027.3mb 50f 39f
9:50 6ft 11s 7s 20 25 mph 1027mb 50f 39f
9:20 5.5ft 11s 6s 20 25 mph 1026.4mb 51f 40f
8:50 5.5ft 10s 7s 20 27 mph 1026.1mb 51f 40f
8:20 5.5ft 11s 6s 18 22 mph 1026mb 51f 40f
7:50 5.5ft 11s 6s 20 22 mph 1025.7mb 51f 40f
7:20 6ft 11s 7s 18 22 mph 1025.5mb 51f 40f
6:50 6ft 11s 6s 18 22 mph 1025.1mb 51f 40f
5:50 5.5ft 10s 7s 18 22 mph 1024.9mb 51f 41f
4:50 6ft 11s 7s 16 20 mph 1024.5mb 51f 41f
4:20 5.5ft 12s 7s 18 25 mph 1024.1mb 51f 41f
3:50 5.5ft 11s 7s 18 25 mph 1023.9mb 51f 41f
2:50 5ft 12s 8s 13 20 mph 1023.7mb 51f 40f
2:20 5ft 11s 8s 13 18 mph 1023.4mb 51f 40f
1:50 5.5ft 12s 8s 11 16 mph 1023.3mb 51f 41f
1:20 5ft 13s 8s 9 16 mph 1023.2mb 51f 41f
12:50 5.5ft 12s 8s 9 11 mph 1023.3mb 51f 41f
12:20 6ft 12s 8s 9 16 mph 1023.2mb 51f 41f
11:50 5ft 13s 8s 11 13 mph 1023.1mb 51f 40f
11:20 5.5ft 11s 8s 11 16 mph 1022.8mb 51f 41f
10:50 6ft 12s 8s 11 16 mph 1022.6mb 51f 40f
10:20 5.5ft 11s 8s 9 13 mph 1022.4mb 51f 40f
9:50 6ft 12s 9s 11 16 mph 1022.2mb 51f 40f
9:20 6ft 12s 9s 11 13 mph 1021.9mb 51f 40f